sensor_id;sensor_type;location;lat;lon;timestamp;temperature;humidity
18932;DHT22;9598;50.954;3.112;2022-09-03T00:03:15;21.00;99.90
18932;DHT22;9598;50.954;3.112;2022-09-03T00:08:24;21.10;99.90
18932;DHT22;9598;50.954;3.112;2022-09-03T00:13:34;21.10;99.90
18932;DHT22;9598;50.954;3.112;2022-09-03T00:18:44;21.10;99.90
18932;DHT22;9598;50.954;3.112;2022-09-03T00:23:47;21.00;99.90
18932;DHT22;9598;50.954;3.112;2022-09-03T00:28:55;21.00;99.90
18932;DHT22;9598;50.954;3.112;2022-09-03T00:34:05;20.90;99.90
18932;DHT22;9598;50.954;3.112;2022-09-03T00:39:11;20.90;99.90
18932;DHT22;9598;50.954;3.112;2022-09-03T00:44:24;20.90;99.90
18932;DHT22;9598;50.954;3.112;2022-09-03T00:49:36;20.90;99.90
18932;DHT22;9598;50.954;3.112;2022-09-03T00:54:48;20.90;99.90
18932;DHT22;9598;50.954;3.112;2022-09-03T00:59:58;20.90;99.90
18932;DHT22;9598;50.954;3.112;2022-09-03T01:05:10;20.90;99.90
18932;DHT22;9598;50.954;3.112;2022-09-03T01:10:28;20.90;99.90
18932;DHT22;9598;50.954;3.112;2022-09-03T01:15:38;20.80;99.90
18932;DHT22;9598;50.954;3.112;2022-09-03T01:20:52;20.80;99.90
18932;DHT22;9598;50.954;3.112;2022-09-03T01:26:07;20.80;99.90
18932;DHT22;9598;50.954;3.112;2022-09-03T01:31:19;20.80;99.90
18932;DHT22;9598;50.954;3.112;2022-09-03T01:36:29;20.80;99.90
18932;DHT22;9598;50.954;3.112;2022-09-03T01:41:45;20.80;99.90
18932;DHT22;9598;50.954;3.112;2022-09-03T01:47:12;20.80;99.90
18932;DHT22;9598;50.954;3.112;2022-09-03T01:52:24;20.80;99.90
18932;DHT22;9598;50.954;3.112;2022-09-03T01:57:46;20.70;99.90
18932;DHT22;9598;50.954;3.112;2022-09-03T02:02:52;20.60;99.90
18932;DHT22;9598;50.954;3.112;2022-09-03T02:07:57;20.60;99.90
18932;DHT22;9598;50.954;3.112;2022-09-03T02:13:03;20.60;99.90
18932;DHT22;9598;50.954;3.112;2022-09-03T02:18:10;20.70;99.90
18932;DHT22;9598;50.954;3.112;2022-09-03T02:23:14;20.70;99.90
18932;DHT22;9598;50.954;3.112;2022-09-03T02:28:17;20.70;99.90
18932;DHT22;9598;50.954;3.112;2022-09-03T02:33:20;20.70;99.90
18932;DHT22;9598;50.954;3.112;2022-09-03T02:38:24;20.70;99.90
18932;DHT22;9598;50.954;3.112;2022-09-03T02:43:31;20.70;99.90
18932;DHT22;9598;50.954;3.112;2022-09-03T02:48:36;20.60;99.90
18932;DHT22;9598;50.954;3.112;2022-09-03T02:53:38;20.50;99.90
18932;DHT22;9598;50.954;3.112;2022-09-03T02:58:40;20.50;99.90
18932;DHT22;9598;50.954;3.112;2022-09-03T03:03:44;20.60;99.90
18932;DHT22;9598;50.954;3.112;2022-09-03T03:08:46;20.50;99.90
18932;DHT22;9598;50.954;3.112;2022-09-03T03:13:49;20.50;99.90
18932;DHT22;9598;50.954;3.112;2022-09-03T03:18:54;20.50;99.90
18932;DHT22;9598;50.954;3.112;2022-09-03T03:23:56;20.50;99.90
18932;DHT22;9598;50.954;3.112;2022-09-03T03:29:00;20.50;99.90
18932;DHT22;9598;50.954;3.112;2022-09-03T03:34:05;20.50;99.90
18932;DHT22;9598;50.954;3.112;2022-09-03T03:39:07;20.50;99.90
18932;DHT22;9598;50.954;3.112;2022-09-03T03:44:09;20.50;99.90
18932;DHT22;9598;50.954;3.112;2022-09-03T03:49:13;20.50;99.90
18932;DHT22;9598;50.954;3.112;2022-09-03T03:54:15;20.50;99.90
18932;DHT22;9598;50.954;3.112;2022-09-03T03:59:17;20.50;99.90
18932;DHT22;9598;50.954;3.112;2022-09-03T04:04:20;20.50;99.90
18932;DHT22;9598;50.954;3.112;2022-09-03T04:09:22;20.50;99.90
18932;DHT22;9598;50.954;3.112;2022-09-03T04:14:24;20.50;99.90
18932;DHT22;9598;50.954;3.112;2022-09-03T04:19:28;20.50;99.90
18932;DHT22;9598;50.954;3.112;2022-09-03T04:24:30;20.40;99.90
18932;DHT22;9598;50.954;3.112;2022-09-03T04:29:32;20.40;99.90
18932;DHT22;9598;50.954;3.112;2022-09-03T04:34:36;20.40;99.90
18932;DHT22;9598;50.954;3.112;2022-09-03T04:39:38;20.40;99.90
18932;DHT22;9598;50.954;3.112;2022-09-03T04:44:40;20.30;99.90
18932;DHT22;9598;50.954;3.112;2022-09-03T04:49:43;20.30;99.90
18932;DHT22;9598;50.954;3.112;2022-09-03T04:54:45;20.20;99.90
18932;DHT22;9598;50.954;3.112;2022-09-03T04:59:47;20.20;99.90
18932;DHT22;9598;50.954;3.112;2022-09-03T05:04:51;20.20;99.90
18932;DHT22;9598;50.954;3.112;2022-09-03T05:09:53;20.10;99.90
18932;DHT22;9598;50.954;3.112;2022-09-03T05:14:58;20.10;99.90
18932;DHT22;9598;50.954;3.112;2022-09-03T05:20:02;20.10;99.90
18932;DHT22;9598;50.954;3.112;2022-09-03T05:25:05;20.00;99.90
18932;DHT22;9598;50.954;3.112;2022-09-03T05:30:08;20.00;99.90
18932;DHT22;9598;50.954;3.112;2022-09-03T05:35:11;20.00;99.90
18932;DHT22;9598;50.954;3.112;2022-09-03T05:40:13;20.00;99.90
18932;DHT22;9598;50.954;3.112;2022-09-03T05:45:16;20.00;99.90
18932;DHT22;9598;50.954;3.112;2022-09-03T05:50:19;20.00;99.90
18932;DHT22;9598;50.954;3.112;2022-09-03T05:55:21;20.00;99.90
18932;DHT22;9598;50.954;3.112;2022-09-03T06:00:23;20.10;99.90
18932;DHT22;9598;50.954;3.112;2022-09-03T06:05:26;20.10;99.90
18932;DHT22;9598;50.954;3.112;2022-09-03T06:10:28;20.10;99.90
18932;DHT22;9598;50.954;3.112;2022-09-03T06:15:31;20.10;99.90
18932;DHT22;9598;50.954;3.112;2022-09-03T06:20:34;20.10;99.90
18932;DHT22;9598;50.954;3.112;2022-09-03T06:25:37;20.20;99.90
18932;DHT22;9598;50.954;3.112;2022-09-03T06:30:39;20.20;99.90
18932;DHT22;9598;50.954;3.112;2022-09-03T06:35:43;20.30;99.90
18932;DHT22;9598;50.954;3.112;2022-09-03T06:40:51;20.30;99.90
18932;DHT22;9598;50.954;3.112;2022-09-03T06:45:55;20.30;99.90
18932;DHT22;9598;50.954;3.112;2022-09-03T06:51:00;20.30;99.90
18932;DHT22;9598;50.954;3.112;2022-09-03T06:56:04;20.30;99.90
18932;DHT22;9598;50.954;3.112;2022-09-03T07:01:08;20.40;99.90
18932;DHT22;9598;50.954;3.112;2022-09-03T07:06:13;20.40;99.90
18932;DHT22;9598;50.954;3.112;2022-09-03T07:11:19;20.40;99.90
18932;DHT22;9598;50.954;3.112;2022-09-03T07:16:26;20.50;99.90
18932;DHT22;9598;50.954;3.112;2022-09-03T07:21:31;20.50;99.90
18932;DHT22;9598;50.954;3.112;2022-09-03T07:26:36;20.60;99.90
18932;DHT22;9598;50.954;3.112;2022-09-03T07:31:39;20.60;99.90
18932;DHT22;9598;50.954;3.112;2022-09-03T07:36:45;20.70;99.90
18932;DHT22;9598;50.954;3.112;2022-09-03T07:41:47;20.80;99.90
18932;DHT22;9598;50.954;3.112;2022-09-03T07:46:50;20.80;99.90
18932;DHT22;9598;50.954;3.112;2022-09-03T07:51:53;20.80;99.90
18932;DHT22;9598;50.954;3.112;2022-09-03T07:56:56;20.80;99.90
18932;DHT22;9598;50.954;3.112;2022-09-03T08:01:58;20.90;99.90
18932;DHT22;9598;50.954;3.112;2022-09-03T08:07:02;21.00;99.90
18932;DHT22;9598;50.954;3.112;2022-09-03T08:12:05;21.10;99.90
18932;DHT22;9598;50.954;3.112;2022-09-03T08:17:07;21.20;99.90
18932;DHT22;9598;50.954;3.112;2022-09-03T08:22:11;21.30;99.90
18932;DHT22;9598;50.954;3.112;2022-09-03T08:27:13;21.40;99.90
18932;DHT22;9598;50.954;3.112;2022-09-03T08:32:15;21.50;99.90
18932;DHT22;9598;50.954;3.112;2022-09-03T08:37:18;21.60;99.90
18932;DHT22;9598;50.954;3.112;2022-09-03T08:42:27;21.70;99.90
18932;DHT22;9598;50.954;3.112;2022-09-03T08:47:33;21.70;99.90
18932;DHT22;9598;50.954;3.112;2022-09-03T08:52:43;21.80;99.90
18932;DHT22;9598;50.954;3.112;2022-09-03T08:57:50;21.80;99.90
18932;DHT22;9598;50.954;3.112;2022-09-03T09:03:04;21.90;99.90
18932;DHT22;9598;50.954;3.112;2022-09-03T09:08:16;22.00;99.90
18932;DHT22;9598;50.954;3.112;2022-09-03T09:13:25;22.20;99.90
18932;DHT22;9598;50.954;3.112;2022-09-03T09:18:38;22.30;99.90
18932;DHT22;9598;50.954;3.112;2022-09-03T09:23:46;22.40;99.90
18932;DHT22;9598;50.954;3.112;2022-09-03T09:28:53;22.50;99.90
18932;DHT22;9598;50.954;3.112;2022-09-03T09:34:00;22.60;99.90
18932;DHT22;9598;50.954;3.112;2022-09-03T09:39:09;22.60;99.90
18932;DHT22;9598;50.954;3.112;2022-09-03T09:44:19;22.70;99.90
18932;DHT22;9598;50.954;3.112;2022-09-03T09:49:29;22.90;99.90
18932;DHT22;9598;50.954;3.112;2022-09-03T09:54:34;23.00;99.90
18932;DHT22;9598;50.954;3.112;2022-09-03T09:59:36;23.10;99.90
18932;DHT22;9598;50.954;3.112;2022-09-03T10:04:39;23.20;99.90
18932;DHT22;9598;50.954;3.112;2022-09-03T10:09:45;23.30;99.90
18932;DHT22;9598;50.954;3.112;2022-09-03T10:14:52;23.40;99.90
18932;DHT22;9598;50.954;3.112;2022-09-03T10:20:00;23.50;99.90
18932;DHT22;9598;50.954;3.112;2022-09-03T10:25:28;23.60;99.90
18932;DHT22;9598;50.954;3.112;2022-09-03T10:30:41;23.80;99.90
18932;DHT22;9598;50.954;3.112;2022-09-03T10:35:52;23.90;99.90
18932;DHT22;9598;50.954;3.112;2022-09-03T10:41:09;24.00;99.90
18932;DHT22;9598;50.954;3.112;2022-09-03T10:46:16;24.20;99.90
18932;DHT22;9598;50.954;3.112;2022-09-03T10:51:22;24.30;99.90
18932;DHT22;9598;50.954;3.112;2022-09-03T10:56:31;24.40;99.90
18932;DHT22;9598;50.954;3.112;2022-09-03T11:01:50;24.50;99.90
18932;DHT22;9598;50.954;3.112;2022-09-03T11:06:59;24.60;99.90
18932;DHT22;9598;50.954;3.112;2022-09-03T11:12:07;24.60;99.90
18932;DHT22;9598;50.954;3.112;2022-09-03T11:17:15;24.70;99.90
18932;DHT22;9598;50.954;3.112;2022-09-03T11:22:21;24.90;99.90
18932;DHT22;9598;50.954;3.112;2022-09-03T11:27:48;25.00;99.90
18932;DHT22;9598;50.954;3.112;2022-09-03T11:32:55;25.10;99.90
18932;DHT22;9598;50.954;3.112;2022-09-03T11:38:02;25.10;99.90
18932;DHT22;9598;50.954;3.112;2022-09-03T11:43:26;25.30;99.90
18932;DHT22;9598;50.954;3.112;2022-09-03T11:48:35;25.40;99.90
18932;DHT22;9598;50.954;3.112;2022-09-03T11:53:38;25.50;99.90
18932;DHT22;9598;50.954;3.112;2022-09-03T11:58:41;25.60;99.90
18932;DHT22;9598;50.954;3.112;2022-09-03T12:03:47;25.70;99.90
18932;DHT22;9598;50.954;3.112;2022-09-03T12:08:59;26.00;99.90
18932;DHT22;9598;50.954;3.112;2022-09-03T12:14:09;26.00;99.90
18932;DHT22;9598;50.954;3.112;2022-09-03T12:19:20;26.10;99.90
18932;DHT22;9598;50.954;3.112;2022-09-03T12:24:26;26.20;99.90
18932;DHT22;9598;50.954;3.112;2022-09-03T12:29:37;26.20;99.90
18932;DHT22;9598;50.954;3.112;2022-09-03T12:34:40;26.30;99.90
18932;DHT22;9598;50.954;3.112;2022-09-03T12:39:50;26.40;99.90
18932;DHT22;9598;50.954;3.112;2022-09-03T12:44:53;26.40;99.90
18932;DHT22;9598;50.954;3.112;2022-09-03T12:49:57;26.50;99.90
18932;DHT22;9598;50.954;3.112;2022-09-03T12:55:02;26.70;99.90
18932;DHT22;9598;50.954;3.112;2022-09-03T13:00:12;26.90;99.90
18932;DHT22;9598;50.954;3.112;2022-09-03T13:05:19;27.10;99.90
18932;DHT22;9598;50.954;3.112;2022-09-03T13:10:25;27.10;99.90
18932;DHT22;9598;50.954;3.112;2022-09-03T13:15:30;26.90;99.90
18932;DHT22;9598;50.954;3.112;2022-09-03T13:20:38;26.60;99.90
18932;DHT22;9598;50.954;3.112;2022-09-03T13:25:51;26.60;99.90
18932;DHT22;9598;50.954;3.112;2022-09-03T13:30:57;26.40;99.90
18932;DHT22;9598;50.954;3.112;2022-09-03T13:36:03;26.40;99.90
18932;DHT22;9598;50.954;3.112;2022-09-03T13:41:13;26.30;99.90
18932;DHT22;9598;50.954;3.112;2022-09-03T13:46:24;26.40;99.90
18932;DHT22;9598;50.954;3.112;2022-09-03T13:51:36;26.50;99.90
18932;DHT22;9598;50.954;3.112;2022-09-03T13:56:49;26.50;99.90
18932;DHT22;9598;50.954;3.112;2022-09-03T14:02:06;26.40;99.90
18932;DHT22;9598;50.954;3.112;2022-09-03T14:07:16;26.30;99.90
18932;DHT22;9598;50.954;3.112;2022-09-03T14:12:33;26.20;99.90
18932;DHT22;9598;50.954;3.112;2022-09-03T14:17:40;26.20;99.90
18932;DHT22;9598;50.954;3.112;2022-09-03T14:22:49;26.20;99.90
18932;DHT22;9598;50.954;3.112;2022-09-03T14:27:53;26.30;99.90
18932;DHT22;9598;50.954;3.112;2022-09-03T14:33:05;26.30;99.90
18932;DHT22;9598;50.954;3.112;2022-09-03T14:38:31;26.50;99.90
18932;DHT22;9598;50.954;3.112;2022-09-03T14:44:03;26.50;99.90
18932;DHT22;9598;50.954;3.112;2022-09-03T14:49:19;26.40;99.90
18932;DHT22;9598;50.954;3.112;2022-09-03T14:54:44;26.20;99.90
18932;DHT22;9598;50.954;3.112;2022-09-03T15:00:03;26.10;99.90
18932;DHT22;9598;50.954;3.112;2022-09-03T15:05:13;26.00;99.90
18932;DHT22;9598;50.954;3.112;2022-09-03T15:10:24;26.00;99.90
18932;DHT22;9598;50.954;3.112;2022-09-03T15:15:34;26.10;99.90
18932;DHT22;9598;50.954;3.112;2022-09-03T15:20:49;26.20;99.90
18932;DHT22;9598;50.954;3.112;2022-09-03T15:26:19;26.20;99.90
18932;DHT22;9598;50.954;3.112;2022-09-03T15:31:30;26.30;99.90
18932;DHT22;9598;50.954;3.112;2022-09-03T15:36:39;26.30;99.90
18932;DHT22;9598;50.954;3.112;2022-09-03T15:41:46;26.40;99.90
18932;DHT22;9598;50.954;3.112;2022-09-03T15:46:57;26.50;99.90
18932;DHT22;9598;50.954;3.112;2022-09-03T15:52:23;26.60;99.90
18932;DHT22;9598;50.954;3.112;2022-09-03T15:57:32;26.60;99.90
18932;DHT22;9598;50.954;3.112;2022-09-03T16:02:41;26.60;99.90
18932;DHT22;9598;50.954;3.112;2022-09-03T16:08:01;26.60;99.90
18932;DHT22;9598;50.954;3.112;2022-09-03T16:13:12;26.60;99.90
18932;DHT22;9598;50.954;3.112;2022-09-03T16:18:26;26.60;99.90
18932;DHT22;9598;50.954;3.112;2022-09-03T16:23:38;26.50;99.90
18932;DHT22;9598;50.954;3.112;2022-09-03T16:28:45;26.30;99.90
18932;DHT22;9598;50.954;3.112;2022-09-03T16:33:55;26.10;99.90
18932;DHT22;9598;50.954;3.112;2022-09-03T16:39:04;26.00;99.90
18932;DHT22;9598;50.954;3.112;2022-09-03T16:44:18;26.00;99.90
18932;DHT22;9598;50.954;3.112;2022-09-03T16:49:37;25.90;99.90
18932;DHT22;9598;50.954;3.112;2022-09-03T16:54:52;25.90;99.90
18932;DHT22;9598;50.954;3.112;2022-09-03T17:00:04;25.90;99.90
18932;DHT22;9598;50.954;3.112;2022-09-03T17:05:23;25.80;99.90
18932;DHT22;9598;50.954;3.112;2022-09-03T17:10:38;25.70;99.90
18932;DHT22;9598;50.954;3.112;2022-09-03T17:15:46;25.40;99.90
18932;DHT22;9598;50.954;3.112;2022-09-03T17:21:00;25.20;99.90
18932;DHT22;9598;50.954;3.112;2022-09-03T17:26:10;24.90;99.90
18932;DHT22;9598;50.954;3.112;2022-09-03T17:31:19;24.80;99.90
18932;DHT22;9598;50.954;3.112;2022-09-03T17:36:25;24.60;99.90
18932;DHT22;9598;50.954;3.112;2022-09-03T17:41:38;24.50;99.90
18932;DHT22;9598;50.954;3.112;2022-09-03T17:46:44;24.40;99.90
18932;DHT22;9598;50.954;3.112;2022-09-03T17:51:50;24.30;99.90
18932;DHT22;9598;50.954;3.112;2022-09-03T17:57:09;24.30;99.90
18932;DHT22;9598;50.954;3.112;2022-09-03T18:02:26;24.30;99.90
18932;DHT22;9598;50.954;3.112;2022-09-03T18:07:37;24.30;99.90
18932;DHT22;9598;50.954;3.112;2022-09-03T18:12:45;24.30;99.90
18932;DHT22;9598;50.954;3.112;2022-09-03T18:17:53;24.30;99.90
18932;DHT22;9598;50.954;3.112;2022-09-03T18:23:01;24.20;99.90
18932;DHT22;9598;50.954;3.112;2022-09-03T18:28:30;24.20;99.90
18932;DHT22;9598;50.954;3.112;2022-09-03T18:33:52;24.30;99.90
18932;DHT22;9598;50.954;3.112;2022-09-03T18:39:15;24.20;99.90
18932;DHT22;9598;50.954;3.112;2022-09-03T18:44:47;24.20;99.90
18932;DHT22;9598;50.954;3.112;2022-09-03T18:50:18;24.10;99.90
18932;DHT22;9598;50.954;3.112;2022-09-03T18:55:50;24.10;99.90
18932;DHT22;9598;50.954;3.112;2022-09-03T19:01:24;24.10;99.90
18932;DHT22;9598;50.954;3.112;2022-09-03T19:06:49;24.10;99.90
18932;DHT22;9598;50.954;3.112;2022-09-03T19:12:19;24.10;99.90
18932;DHT22;9598;50.954;3.112;2022-09-03T19:18:04;24.10;99.90
18932;DHT22;9598;50.954;3.112;2022-09-03T19:23:25;23.90;99.90
18932;DHT22;9598;50.954;3.112;2022-09-03T19:28:47;23.80;99.90
18932;DHT22;9598;50.954;3.112;2022-09-03T19:34:25;23.80;99.90
18932;DHT22;9598;50.954;3.112;2022-09-03T19:39:58;23.80;99.90
18932;DHT22;9598;50.954;3.112;2022-09-03T19:45:24;23.80;99.90
18932;DHT22;9598;50.954;3.112;2022-09-03T19:51:00;23.80;99.90
18932;DHT22;9598;50.954;3.112;2022-09-03T19:56:26;23.70;99.90
18932;DHT22;9598;50.954;3.112;2022-09-03T20:01:47;23.70;99.90
18932;DHT22;9598;50.954;3.112;2022-09-03T20:07:09;23.70;99.90
18932;DHT22;9598;50.954;3.112;2022-09-03T20:12:32;23.70;99.90
18932;DHT22;9598;50.954;3.112;2022-09-03T20:17:39;23.70;99.90
18932;DHT22;9598;50.954;3.112;2022-09-03T20:22:50;23.70;99.90
18932;DHT22;9598;50.954;3.112;2022-09-03T20:27:59;23.60;99.90
18932;DHT22;9598;50.954;3.112;2022-09-03T20:33:20;23.50;99.90
18932;DHT22;9598;50.954;3.112;2022-09-03T20:38:46;23.50;99.90
18932;DHT22;9598;50.954;3.112;2022-09-03T20:44:07;23.50;99.90
18932;DHT22;9598;50.954;3.112;2022-09-03T20:49:25;23.50;99.90
18932;DHT22;9598;50.954;3.112;2022-09-03T20:54:35;23.50;99.90
18932;DHT22;9598;50.954;3.112;2022-09-03T20:59:54;23.40;99.90
18932;DHT22;9598;50.954;3.112;2022-09-03T21:05:05;23.40;99.90
18932;DHT22;9598;50.954;3.112;2022-09-03T21:10:17;23.40;99.90
18932;DHT22;9598;50.954;3.112;2022-09-03T21:15:29;23.40;99.90
18932;DHT22;9598;50.954;3.112;2022-09-03T21:20:42;23.40;99.90
18932;DHT22;9598;50.954;3.112;2022-09-03T21:25:51;23.30;99.90
18932;DHT22;9598;50.954;3.112;2022-09-03T21:30:58;23.30;99.90
18932;DHT22;9598;50.954;3.112;2022-09-03T21:36:06;23.30;99.90
18932;DHT22;9598;50.954;3.112;2022-09-03T21:41:16;23.30;99.90
18932;DHT22;9598;50.954;3.112;2022-09-03T21:46:22;23.30;99.90
18932;DHT22;9598;50.954;3.112;2022-09-03T21:51:30;23.30;99.90
18932;DHT22;9598;50.954;3.112;2022-09-03T21:56:56;23.20;99.90
18932;DHT22;9598;50.954;3.112;2022-09-03T22:02:05;23.20;99.90
18932;DHT22;9598;50.954;3.112;2022-09-03T22:07:13;23.10;99.90
18932;DHT22;9598;50.954;3.112;2022-09-03T22:12:22;23.00;99.90
18932;DHT22;9598;50.954;3.112;2022-09-03T22:17:32;23.00;99.90
18932;DHT22;9598;50.954;3.112;2022-09-03T22:22:41;23.00;99.90
18932;DHT22;9598;50.954;3.112;2022-09-03T22:27:49;22.90;99.90
18932;DHT22;9598;50.954;3.112;2022-09-03T22:33:04;22.90;99.90
18932;DHT22;9598;50.954;3.112;2022-09-03T22:38:28;22.90;99.90
18932;DHT22;9598;50.954;3.112;2022-09-03T22:43:39;22.80;99.90
18932;DHT22;9598;50.954;3.112;2022-09-03T22:49:04;22.80;99.90
18932;DHT22;9598;50.954;3.112;2022-09-03T22:54:24;22.80;99.90
18932;DHT22;9598;50.954;3.112;2022-09-03T22:59:35;22.70;99.90
18932;DHT22;9598;50.954;3.112;2022-09-03T23:04:41;22.70;99.90
18932;DHT22;9598;50.954;3.112;2022-09-03T23:09:52;22.60;99.90
18932;DHT22;9598;50.954;3.112;2022-09-03T23:14:57;22.60;99.90
18932;DHT22;9598;50.954;3.112;2022-09-03T23:20:04;22.50;99.90
18932;DHT22;9598;50.954;3.112;2022-09-03T23:25:10;22.50;99.90
18932;DHT22;9598;50.954;3.112;2022-09-03T23:30:15;22.40;99.90
18932;DHT22;9598;50.954;3.112;2022-09-03T23:35:18;22.40;99.90
18932;DHT22;9598;50.954;3.112;2022-09-03T23:40:39;22.40;99.90
18932;DHT22;9598;50.954;3.112;2022-09-03T23:45:52;22.30;99.90
18932;DHT22;9598;50.954;3.112;2022-09-03T23:51:02;22.30;99.90
18932;DHT22;9598;50.954;3.112;2022-09-03T23:56:18;22.20;99.90
